sensor_id;sensor_type;location;lat;lon;timestamp;pressure;altitude;pressure_sealevel;temperature;humidity
21863;BME280;11096;51.338;12.524;2023-04-19T00:00:17;101081.03;;;8.99;83.96
21863;BME280;11096;51.338;12.524;2023-04-19T00:02:43;101073.25;;;8.99;83.38
21863;BME280;11096;51.338;12.524;2023-04-19T00:05:08;101073.47;;;8.94;82.92
21863;BME280;11096;51.338;12.524;2023-04-19T00:07:35;101075.81;;;8.81;82.15
21863;BME280;11096;51.338;12.524;2023-04-19T00:10:01;101074.22;;;8.79;82.09
21863;BME280;11096;51.338;12.524;2023-04-19T00:12:26;101078.53;;;8.78;81.96
21863;BME280;11096;51.338;12.524;2023-04-19T00:14:52;101079.50;;;8.76;81.81
21863;BME280;11096;51.338;12.524;2023-04-19T00:17:17;101081.78;;;8.65;81.57
21863;BME280;11096;51.338;12.524;2023-04-19T00:19:44;101077.63;;;8.60;81.04
21863;BME280;11096;51.338;12.524;2023-04-19T00:22:09;101071.75;;;8.57;81.00
21863;BME280;11096;51.338;12.524;2023-04-19T00:24:35;101077.06;;;8.54;80.62
21863;BME280;11096;51.338;12.524;2023-04-19T00:27:00;101073.50;;;8.56;80.64
21863;BME280;11096;51.338;12.524;2023-04-19T00:29:26;101074.47;;;8.54;81.07
21863;BME280;11096;51.338;12.524;2023-04-19T00:31:51;101072.75;;;8.54;81.18
21863;BME280;11096;51.338;12.524;2023-04-19T00:34:17;101068.91;;;8.44;81.74
21863;BME280;11096;51.338;12.524;2023-04-19T00:36:42;101066.69;;;8.35;82.17
21863;BME280;11096;51.338;12.524;2023-04-19T00:39:08;101074.50;;;8.33;83.34
21863;BME280;11096;51.338;12.524;2023-04-19T00:41:33;101075.69;;;8.26;83.24
21863;BME280;11096;51.338;12.524;2023-04-19T00:43:58;101069.47;;;8.30;83.98
21863;BME280;11096;51.338;12.524;2023-04-19T00:46:24;101074.16;;;8.22;84.26
21863;BME280;11096;51.338;12.524;2023-04-19T00:48:50;101064.78;;;8.20;84.36
21863;BME280;11096;51.338;12.524;2023-04-19T00:51:16;101068.84;;;8.25;84.40
21863;BME280;11096;51.338;12.524;2023-04-19T00:53:42;101062.88;;;8.23;84.42
21863;BME280;11096;51.338;12.524;2023-04-19T00:56:08;101072.25;;;8.26;83.89
21863;BME280;11096;51.338;12.524;2023-04-19T00:58:36;101075.88;;;8.22;83.47
21863;BME280;11096;51.338;12.524;2023-04-19T01:01:02;101064.06;;;8.16;83.09
21863;BME280;11096;51.338;12.524;2023-04-19T01:03:29;101069.38;;;8.13;83.75
21863;BME280;11096;51.338;12.524;2023-04-19T01:05:54;101065.72;;;8.17;83.86
21863;BME280;11096;51.338;12.524;2023-04-19T01:08:21;101066.66;;;8.16;83.82
21863;BME280;11096;51.338;12.524;2023-04-19T01:10:46;101068.47;;;8.14;83.87
21863;BME280;11096;51.338;12.524;2023-04-19T01:13:12;101068.09;;;8.03;84.41
21863;BME280;11096;51.338;12.524;2023-04-19T01:15:37;101070.16;;;7.94;84.94
21863;BME280;11096;51.338;12.524;2023-04-19T01:18:02;101064.19;;;7.92;84.79
21863;BME280;11096;51.338;12.524;2023-04-19T01:20:28;101067.47;;;7.98;84.96
21863;BME280;11096;51.338;12.524;2023-04-19T01:22:53;101067.31;;;8.01;85.13
21863;BME280;11096;51.338;12.524;2023-04-19T01:25:19;101064.16;;;7.94;85.20
21863;BME280;11096;51.338;12.524;2023-04-19T01:27:44;101062.53;;;7.91;85.84
21863;BME280;11096;51.338;12.524;2023-04-19T01:30:10;101055.50;;;7.95;85.96
21863;BME280;11096;51.338;12.524;2023-04-19T01:32:36;101053.66;;;7.97;85.27
21863;BME280;11096;51.338;12.524;2023-04-19T01:35:01;101049.59;;;7.91;85.51
21863;BME280;11096;51.338;12.524;2023-04-19T01:37:26;101054.28;;;7.83;85.79
21863;BME280;11096;51.338;12.524;2023-04-19T01:39:52;101048.03;;;7.87;85.90
21863;BME280;11096;51.338;12.524;2023-04-19T01:42:17;101037.91;;;7.83;86.28
21863;BME280;11096;51.338;12.524;2023-04-19T01:44:42;101037.53;;;7.71;86.57
21863;BME280;11096;51.338;12.524;2023-04-19T01:47:08;101029.81;;;7.70;86.78
21863;BME280;11096;51.338;12.524;2023-04-19T01:49:34;101042.81;;;7.68;87.36
21863;BME280;11096;51.338;12.524;2023-04-19T01:51:59;101043.41;;;7.55;88.11
21863;BME280;11096;51.338;12.524;2023-04-19T01:54:24;101037.06;;;7.62;88.58
21863;BME280;11096;51.338;12.524;2023-04-19T01:56:51;101038.69;;;7.64;88.52
21863;BME280;11096;51.338;12.524;2023-04-19T01:59:16;101045.97;;;7.55;88.84
21863;BME280;11096;51.338;12.524;2023-04-19T02:01:42;101048.44;;;7.58;89.04
21863;BME280;11096;51.338;12.524;2023-04-19T02:04:09;101042.28;;;7.60;89.38
21863;BME280;11096;51.338;12.524;2023-04-19T02:06:34;101048.19;;;7.64;89.29
21863;BME280;11096;51.338;12.524;2023-04-19T02:09:00;101040.88;;;7.53;89.76
21863;BME280;11096;51.338;12.524;2023-04-19T02:11:25;101040.03;;;7.52;89.83
21863;BME280;11096;51.338;12.524;2023-04-19T02:13:51;101041.91;;;7.49;90.17
21863;BME280;11096;51.338;12.524;2023-04-19T02:16:16;101040.94;;;7.51;91.00
21863;BME280;11096;51.338;12.524;2023-04-19T02:18:41;101042.75;;;7.49;91.33
21863;BME280;11096;51.338;12.524;2023-04-19T02:21:08;101040.13;;;7.51;91.03
21863;BME280;11096;51.338;12.524;2023-04-19T02:23:34;101039.47;;;7.46;91.21
21863;BME280;11096;51.338;12.524;2023-04-19T02:26:00;101042.81;;;7.48;91.26
21863;BME280;11096;51.338;12.524;2023-04-19T02:28:29;101038.41;;;7.50;91.42
21863;BME280;11096;51.338;12.524;2023-04-19T02:30:55;101027.69;;;7.39;91.69
21863;BME280;11096;51.338;12.524;2023-04-19T02:33:21;101037.72;;;7.46;92.04
21863;BME280;11096;51.338;12.524;2023-04-19T02:35:47;101033.44;;;7.45;91.99
21863;BME280;11096;51.338;12.524;2023-04-19T02:38:12;101034.34;;;7.44;92.22
21863;BME280;11096;51.338;12.524;2023-04-19T02:40:37;101025.56;;;7.48;91.62
21863;BME280;11096;51.338;12.524;2023-04-19T02:43:03;101024.13;;;7.41;92.22
21863;BME280;11096;51.338;12.524;2023-04-19T02:45:29;101035.00;;;7.49;91.68
21863;BME280;11096;51.338;12.524;2023-04-19T02:47:54;101031.03;;;7.41;91.60
21863;BME280;11096;51.338;12.524;2023-04-19T02:50:20;101029.69;;;7.32;92.81
21863;BME280;11096;51.338;12.524;2023-04-19T02:52:45;101031.81;;;7.43;92.28
21863;BME280;11096;51.338;12.524;2023-04-19T02:55:11;101024.38;;;7.35;92.00
21863;BME280;11096;51.338;12.524;2023-04-19T02:57:36;101034.47;;;7.41;92.12
21863;BME280;11096;51.338;12.524;2023-04-19T03:00:02;101029.91;;;7.26;92.25
21863;BME280;11096;51.338;12.524;2023-04-19T03:02:29;101024.22;;;7.18;92.30
21863;BME280;11096;51.338;12.524;2023-04-19T03:04:55;101024.31;;;7.16;92.32
21863;BME280;11096;51.338;12.524;2023-04-19T03:07:20;101026.69;;;7.21;92.35
21863;BME280;11096;51.338;12.524;2023-04-19T03:09:45;101023.25;;;7.20;91.87
21863;BME280;11096;51.338;12.524;2023-04-19T03:12:11;101022.47;;;7.18;91.04
21863;BME280;11096;51.338;12.524;2023-04-19T03:14:36;101023.72;;;7.09;90.64
21863;BME280;11096;51.338;12.524;2023-04-19T03:17:02;101014.91;;;7.14;90.71
21863;BME280;11096;51.338;12.524;2023-04-19T03:19:27;101016.75;;;7.12;90.70
21863;BME280;11096;51.338;12.524;2023-04-19T03:21:53;101013.72;;;7.00;90.39
21863;BME280;11096;51.338;12.524;2023-04-19T03:24:19;101013.09;;;6.95;89.78
21863;BME280;11096;51.338;12.524;2023-04-19T03:26:44;101012.59;;;6.85;89.72
21863;BME280;11096;51.338;12.524;2023-04-19T03:29:10;101013.22;;;6.92;89.54
21863;BME280;11096;51.338;12.524;2023-04-19T03:31:36;101008.34;;;7.06;89.28
21863;BME280;11096;51.338;12.524;2023-04-19T03:34:01;101003.22;;;6.83;88.95
21863;BME280;11096;51.338;12.524;2023-04-19T03:36:27;101003.06;;;6.87;88.44
21863;BME280;11096;51.338;12.524;2023-04-19T03:38:53;100998.53;;;6.71;88.17
21863;BME280;11096;51.338;12.524;2023-04-19T03:41:23;100995.63;;;6.80;87.78
21863;BME280;11096;51.338;12.524;2023-04-19T03:43:49;100997.94;;;6.86;86.56
21863;BME280;11096;51.338;12.524;2023-04-19T03:46:14;100999.69;;;6.85;85.94
21863;BME280;11096;51.338;12.524;2023-04-19T03:48:40;100997.53;;;6.75;85.07
21863;BME280;11096;51.338;12.524;2023-04-19T03:51:05;100999.56;;;6.88;84.51
21863;BME280;11096;51.338;12.524;2023-04-19T03:53:31;100991.41;;;6.77;83.58
21863;BME280;11096;51.338;12.524;2023-04-19T03:55:56;100994.81;;;6.78;83.06
21863;BME280;11096;51.338;12.524;2023-04-19T03:58:22;100988.66;;;6.82;82.45
21863;BME280;11096;51.338;12.524;2023-04-19T04:00:47;100991.59;;;6.73;81.73
21863;BME280;11096;51.338;12.524;2023-04-19T04:03:13;100992.13;;;6.81;82.08
21863;BME280;11096;51.338;12.524;2023-04-19T04:05:38;100994.69;;;6.81;81.62
21863;BME280;11096;51.338;12.524;2023-04-19T04:08:04;100989.84;;;6.73;80.76
21863;BME280;11096;51.338;12.524;2023-04-19T04:10:29;100989.00;;;6.73;79.86
21863;BME280;11096;51.338;12.524;2023-04-19T04:12:55;100988.34;;;6.68;79.34
21863;BME280;11096;51.338;12.524;2023-04-19T04:15:20;100992.72;;;6.65;78.70
21863;BME280;11096;51.338;12.524;2023-04-19T04:17:46;100995.53;;;6.59;78.35
21863;BME280;11096;51.338;12.524;2023-04-19T04:20:11;100989.59;;;6.57;77.82
21863;BME280;11096;51.338;12.524;2023-04-19T04:22:44;100989.31;;;6.65;77.16
21863;BME280;11096;51.338;12.524;2023-04-19T04:25:13;100996.31;;;6.61;76.67
21863;BME280;11096;51.338;12.524;2023-04-19T04:27:43;100989.66;;;6.78;76.53
21863;BME280;11096;51.338;12.524;2023-04-19T04:30:09;100993.50;;;6.68;75.49
21863;BME280;11096;51.338;12.524;2023-04-19T04:32:35;100990.75;;;6.72;75.25
21863;BME280;11096;51.338;12.524;2023-04-19T04:35:02;100994.28;;;6.70;74.26
21863;BME280;11096;51.338;12.524;2023-04-19T04:37:27;100994.81;;;6.78;73.78
21863;BME280;11096;51.338;12.524;2023-04-19T04:39:55;101000.00;;;6.78;72.88
21863;BME280;11096;51.338;12.524;2023-04-19T04:42:20;100994.28;;;6.70;72.42
21863;BME280;11096;51.338;12.524;2023-04-19T04:44:46;100994.81;;;6.78;71.81
21863;BME280;11096;51.338;12.524;2023-04-19T04:47:12;100997.41;;;6.78;71.11
21863;BME280;11096;51.338;12.524;2023-04-19T04:49:37;100997.63;;;6.72;71.08
21863;BME280;11096;51.338;12.524;2023-04-19T04:52:03;100995.91;;;6.72;70.62
21863;BME280;11096;51.338;12.524;2023-04-19T04:54:29;100992.63;;;6.89;70.07
21863;BME280;11096;51.338;12.524;2023-04-19T04:56:54;100992.47;;;6.94;69.80
21863;BME280;11096;51.338;12.524;2023-04-19T04:59:20;100999.19;;;6.98;69.21
21863;BME280;11096;51.338;12.524;2023-04-19T05:01:45;100992.75;;;7.08;68.37
21863;BME280;11096;51.338;12.524;2023-04-19T05:04:10;100994.00;;;7.20;67.13
21863;BME280;11096;51.338;12.524;2023-04-19T05:06:36;100993.03;;;7.22;66.51
21863;BME280;11096;51.338;12.524;2023-04-19T05:09:05;100997.69;;;7.35;66.39
21863;BME280;11096;51.338;12.524;2023-04-19T05:11:30;100991.31;;;7.43;65.00
21863;BME280;11096;51.338;12.524;2023-04-19T05:13:56;100995.78;;;7.38;64.92
21863;BME280;11096;51.338;12.524;2023-04-19T05:16:21;100991.41;;;7.40;64.12
21863;BME280;11096;51.338;12.524;2023-04-19T05:18:47;100991.41;;;7.40;63.18
21863;BME280;11096;51.338;12.524;2023-04-19T05:21:12;100995.19;;;7.53;62.61
21863;BME280;11096;51.338;12.524;2023-04-19T05:23:38;100990.44;;;7.63;61.52
21863;BME280;11096;51.338;12.524;2023-04-19T05:26:04;100992.41;;;7.77;60.81
21863;BME280;11096;51.338;12.524;2023-04-19T05:28:29;100992.66;;;7.91;59.86
21863;BME280;11096;51.338;12.524;2023-04-19T05:30:55;100989.72;;;7.80;59.52
21863;BME280;11096;51.338;12.524;2023-04-19T05:33:20;100983.25;;;7.70;59.84
21863;BME280;11096;51.338;12.524;2023-04-19T05:35:45;100983.72;;;7.59;60.04
21863;BME280;11096;51.338;12.524;2023-04-19T05:38:11;100978.50;;;7.61;60.06
21863;BME280;11096;51.338;12.524;2023-04-19T05:40:36;100989.34;;;7.48;59.80
21863;BME280;11096;51.338;12.524;2023-04-19T05:43:03;100982.25;;;7.53;59.33
21863;BME280;11096;51.338;12.524;2023-04-19T05:45:28;100982.75;;;7.62;59.78
21863;BME280;11096;51.338;12.524;2023-04-19T05:47:53;100978.72;;;7.55;59.47
21863;BME280;11096;51.338;12.524;2023-04-19T05:50:19;100982.16;;;7.76;59.29
21863;BME280;11096;51.338;12.524;2023-04-19T05:52:45;100973.03;;;7.67;58.69
21863;BME280;11096;51.338;12.524;2023-04-19T05:55:10;100978.41;;;7.83;57.81
21863;BME280;11096;51.338;12.524;2023-04-19T05:57:36;100978.50;;;7.80;57.46
21863;BME280;11096;51.338;12.524;2023-04-19T06:00:02;100976.31;;;8.10;58.11
21863;BME280;11096;51.338;12.524;2023-04-19T06:02:29;100984.91;;;8.29;57.31
21863;BME280;11096;51.338;12.524;2023-04-19T06:04:54;100979.41;;;8.37;56.66
21863;BME280;11096;51.338;12.524;2023-04-19T06:07:22;100977.03;;;8.69;56.61
21863;BME280;11096;51.338;12.524;2023-04-19T06:09:47;100974.97;;;8.94;55.83
21863;BME280;11096;51.338;12.524;2023-04-19T06:12:13;100968.19;;;9.27;54.85
21863;BME280;11096;51.338;12.524;2023-04-19T06:14:38;100982.97;;;9.24;54.93
21863;BME280;11096;51.338;12.524;2023-04-19T06:17:03;100974.41;;;9.75;53.85
21863;BME280;11096;51.338;12.524;2023-04-19T06:19:29;100969.97;;;10.42;52.29
21863;BME280;11096;51.338;12.524;2023-04-19T06:21:58;100970.50;;;10.79;51.18
21863;BME280;11096;51.338;12.524;2023-04-19T06:24:23;100963.97;;;12.59;48.10
21863;BME280;11096;51.338;12.524;2023-04-19T06:26:48;100957.97;;;15.21;43.82
21863;BME280;11096;51.338;12.524;2023-04-19T06:29:14;100947.56;;;18.60;38.48
21863;BME280;11096;51.338;12.524;2023-04-19T06:31:39;100947.34;;;20.32;34.67
21863;BME280;11096;51.338;12.524;2023-04-19T06:34:05;100957.06;;;20.50;32.65
21863;BME280;11096;51.338;12.524;2023-04-19T06:36:31;100952.63;;;22.41;29.94
21863;BME280;11096;51.338;12.524;2023-04-19T06:38:56;100950.34;;;23.76;28.60
21863;BME280;11096;51.338;12.524;2023-04-19T06:41:22;100945.75;;;25.16;27.00
21863;BME280;11096;51.338;12.524;2023-04-19T06:43:47;100946.16;;;24.44;25.81
21863;BME280;11096;51.338;12.524;2023-04-19T06:46:12;100945.72;;;25.01;25.27
21863;BME280;11096;51.338;12.524;2023-04-19T06:48:38;100946.16;;;25.58;24.53
21863;BME280;11096;51.338;12.524;2023-04-19T06:51:04;100943.06;;;27.89;23.07
21863;BME280;11096;51.338;12.524;2023-04-19T06:53:29;100927.59;;;28.93;21.75
21863;BME280;11096;51.338;12.524;2023-04-19T06:55:59;100933.53;;;28.75;21.37
21863;BME280;11096;51.338;12.524;2023-04-19T06:58:26;100932.09;;;28.72;21.30
21863;BME280;11096;51.338;12.524;2023-04-19T07:00:51;100926.97;;;29.10;20.99
21863;BME280;11096;51.338;12.524;2023-04-19T07:03:17;100928.09;;;30.38;19.26
21863;BME280;11096;51.338;12.524;2023-04-19T07:05:42;100917.06;;;31.40;18.33
21863;BME280;11096;51.338;12.524;2023-04-19T07:08:08;100925.09;;;32.61;18.19
21863;BME280;11096;51.338;12.524;2023-04-19T07:10:33;100910.59;;;31.22;18.50
21863;BME280;11096;51.338;12.524;2023-04-19T07:12:59;100920.56;;;31.40;18.54
21863;BME280;11096;51.338;12.524;2023-04-19T07:15:24;100915.09;;;31.65;18.34
21863;BME280;11096;51.338;12.524;2023-04-19T07:17:49;100902.78;;;31.21;18.19
21863;BME280;11096;51.338;12.524;2023-04-19T07:20:15;100903.59;;;30.85;18.61
21863;BME280;11096;51.338;12.524;2023-04-19T07:22:40;100899.19;;;31.27;17.67
21863;BME280;11096;51.338;12.524;2023-04-19T07:25:06;100903.06;;;30.44;18.52
21863;BME280;11096;51.338;12.524;2023-04-19T07:27:31;100894.16;;;33.34;16.77
21863;BME280;11096;51.338;12.524;2023-04-19T07:29:57;100887.50;;;33.94;15.71
21863;BME280;11096;51.338;12.524;2023-04-19T07:32:22;100894.34;;;34.47;15.90
21863;BME280;11096;51.338;12.524;2023-04-19T07:34:48;100888.84;;;34.25;15.79
21863;BME280;11096;51.338;12.524;2023-04-19T07:37:13;100893.69;;;33.37;15.99
21863;BME280;11096;51.338;12.524;2023-04-19T07:39:38;100883.38;;;35.10;15.13
21863;BME280;11096;51.338;12.524;2023-04-19T07:42:04;100882.56;;;35.31;15.00
21863;BME280;11096;51.338;12.524;2023-04-19T07:44:30;100883.78;;;36.22;14.71
21863;BME280;11096;51.338;12.524;2023-04-19T07:46:55;100883.69;;;35.35;14.52
21863;BME280;11096;51.338;12.524;2023-04-19T07:49:20;100883.03;;;36.69;14.54
21863;BME280;11096;51.338;12.524;2023-04-19T07:51:46;100885.78;;;37.32;14.04
21863;BME280;11096;51.338;12.524;2023-04-19T07:54:11;100876.88;;;35.77;13.79
21863;BME280;11096;51.338;12.524;2023-04-19T07:56:37;100875.06;;;37.78;13.63
21863;BME280;11096;51.338;12.524;2023-04-19T07:59:02;100871.91;;;36.28;13.52
21863;BME280;11096;51.338;12.524;2023-04-19T08:01:28;100885.69;;;38.20;13.42
21863;BME280;11096;51.338;12.524;2023-04-19T08:03:54;100879.72;;;36.57;14.02
21863;BME280;11096;51.338;12.524;2023-04-19T08:06:19;100880.22;;;37.01;13.93
21863;BME280;11096;51.338;12.524;2023-04-19T08:08:46;100878.66;;;37.10;13.89
21863;BME280;11096;51.338;12.524;2023-04-19T08:11:11;100877.75;;;37.57;13.33
21863;BME280;11096;51.338;12.524;2023-04-19T08:13:37;100870.09;;;37.34;13.80
21863;BME280;11096;51.338;12.524;2023-04-19T08:16:02;100867.75;;;38.19;13.31
21863;BME280;11096;51.338;12.524;2023-04-19T08:18:28;100854.34;;;37.46;13.38
21863;BME280;11096;51.338;12.524;2023-04-19T08:20:53;100856.59;;;36.44;13.48
21863;BME280;11096;51.338;12.524;2023-04-19T08:23:19;100854.94;;;38.61;13.20
21863;BME280;11096;51.338;12.524;2023-04-19T08:25:45;100846.13;;;40.52;11.80
21863;BME280;11096;51.338;12.524;2023-04-19T08:28:10;100845.53;;;41.41;11.51
21863;BME280;11096;51.338;12.524;2023-04-19T08:30:36;100833.97;;;39.81;12.20
21863;BME280;11096;51.338;12.524;2023-04-19T08:33:02;100838.72;;;38.15;13.11
21863;BME280;11096;51.338;12.524;2023-04-19T08:35:27;100840.06;;;38.33;12.81
21863;BME280;11096;51.338;12.524;2023-04-19T08:37:53;100831.38;;;37.79;13.15
21863;BME280;11096;51.338;12.524;2023-04-19T08:40:18;100834.13;;;38.15;13.34
21863;BME280;11096;51.338;12.524;2023-04-19T08:42:44;100829.63;;;38.81;12.92
21863;BME280;11096;51.338;12.524;2023-04-19T08:45:09;100825.59;;;39.28;12.66
21863;BME280;11096;51.338;12.524;2023-04-19T08:47:38;100823.78;;;38.12;12.91
21863;BME280;11096;51.338;12.524;2023-04-19T08:50:05;100816.97;;;39.95;12.44
21863;BME280;11096;51.338;12.524;2023-04-19T08:52:33;100816.78;;;39.52;12.53
21863;BME280;11096;51.338;12.524;2023-04-19T08:55:06;100813.59;;;39.39;12.69
21863;BME280;11096;51.338;12.524;2023-04-19T08:57:33;100812.03;;;40.31;12.38
21863;BME280;11096;51.338;12.524;2023-04-19T09:00:01;100802.31;;;40.73;11.70
21863;BME280;11096;51.338;12.524;2023-04-19T09:02:43;100800.28;;;41.40;11.40
21863;BME280;11096;51.338;12.524;2023-04-19T09:05:09;100804.91;;;39.71;12.21
21863;BME280;11096;51.338;12.524;2023-04-19T09:07:35;100805.06;;;40.92;11.72
21863;BME280;11096;51.338;12.524;2023-04-19T09:10:05;100797.53;;;41.59;10.78
21863;BME280;11096;51.338;12.524;2023-04-19T09:12:32;100796.81;;;41.35;11.10
21863;BME280;11096;51.338;12.524;2023-04-19T09:14:59;100799.16;;;41.93;11.24
21863;BME280;11096;51.338;12.524;2023-04-19T09:17:25;100794.63;;;42.16;11.13
21863;BME280;11096;51.338;12.524;2023-04-19T09:19:50;100787.19;;;40.08;11.66
21863;BME280;11096;51.338;12.524;2023-04-19T09:22:16;100781.75;;;41.89;11.33
21863;BME280;11096;51.338;12.524;2023-04-19T09:24:42;100789.16;;;40.99;10.97
21863;BME280;11096;51.338;12.524;2023-04-19T09:27:08;100779.63;;;40.53;11.81
21863;BME280;11096;51.338;12.524;2023-04-19T09:29:36;100770.78;;;40.86;11.17
21863;BME280;11096;51.338;12.524;2023-04-19T09:32:02;100766.00;;;40.53;11.36
21863;BME280;11096;51.338;12.524;2023-04-19T09:34:28;100763.50;;;41.00;11.07
21863;BME280;11096;51.338;12.524;2023-04-19T09:36:54;100769.53;;;40.06;12.01
21863;BME280;11096;51.338;12.524;2023-04-19T09:39:30;100753.78;;;40.94;11.47
21863;BME280;11096;51.338;12.524;2023-04-19T09:41:56;100753.94;;;40.84;11.27
21863;BME280;11096;51.338;12.524;2023-04-19T09:44:22;100758.91;;;41.85;11.01
21863;BME280;11096;51.338;12.524;2023-04-19T09:46:48;100748.88;;;42.91;10.55
21863;BME280;11096;51.338;12.524;2023-04-19T09:49:19;100752.97;;;42.11;10.94
21863;BME280;11096;51.338;12.524;2023-04-19T09:51:55;100743.06;;;39.14;11.92
21863;BME280;11096;51.338;12.524;2023-04-19T09:54:24;100746.63;;;42.29;10.90
21863;BME280;11096;51.338;12.524;2023-04-19T09:56:54;100744.97;;;44.53;10.14
21863;BME280;11096;51.338;12.524;2023-04-19T09:59:19;100739.31;;;45.46;9.39
21863;BME280;11096;51.338;12.524;2023-04-19T10:01:47;100728.75;;;43.86;9.84
21863;BME280;11096;51.338;12.524;2023-04-19T10:04:15;100727.38;;;41.13;10.86
21863;BME280;11096;51.338;12.524;2023-04-19T10:06:46;100717.31;;;41.74;10.90
21863;BME280;11096;51.338;12.524;2023-04-19T10:09:12;100715.28;;;37.20;12.61
21863;BME280;11096;51.338;12.524;2023-04-19T10:11:38;100717.25;;;41.47;11.02
21863;BME280;11096;51.338;12.524;2023-04-19T10:14:08;100707.72;;;39.82;11.28
21863;BME280;11096;51.338;12.524;2023-04-19T10:16:36;100713.44;;;42.50;11.01
21863;BME280;11096;51.338;12.524;2023-04-19T10:19:12;100687.34;;;42.80;10.48
21863;BME280;11096;51.338;12.524;2023-04-19T10:21:41;100691.03;;;39.60;11.20
21863;BME280;11096;51.338;12.524;2023-04-19T10:24:08;100691.81;;;41.51;10.70
21863;BME280;11096;51.338;12.524;2023-04-19T10:32:17;100684.38;;;41.57;11.09
21863;BME280;11096;51.338;12.524;2023-04-19T10:34:44;100682.06;;;40.80;11.56
21863;BME280;11096;51.338;12.524;2023-04-19T10:37:10;100668.44;;;40.80;11.29
21863;BME280;11096;51.338;12.524;2023-04-19T10:39:43;100671.75;;;40.33;12.16
21863;BME280;11096;51.338;12.524;2023-04-19T10:42:09;100671.34;;;41.35;10.99
21863;BME280;11096;51.338;12.524;2023-04-19T10:44:34;100656.81;;;41.72;10.88
21863;BME280;11096;51.338;12.524;2023-04-19T10:47:00;100663.25;;;43.04;10.29
21863;BME280;11096;51.338;12.524;2023-04-19T10:49:27;100658.16;;;38.38;12.06
21863;BME280;11096;51.338;12.524;2023-04-19T10:51:53;100646.19;;;32.66;14.92
21863;BME280;11096;51.338;12.524;2023-04-19T10:54:30;100656.28;;;35.91;13.75
21863;BME280;11096;51.338;12.524;2023-04-19T10:57:07;100650.97;;;36.01;13.77
21863;BME280;11096;51.338;12.524;2023-04-19T10:59:35;100652.41;;;37.33;13.19
21863;BME280;11096;51.338;12.524;2023-04-19T11:02:25;100640.72;;;37.74;13.03
21863;BME280;11096;51.338;12.524;2023-04-19T11:07:17;100633.47;;;39.53;12.42
21863;BME280;11096;51.338;12.524;2023-04-19T11:09:46;100624.66;;;38.03;12.47
21863;BME280;11096;51.338;12.524;2023-04-19T11:12:18;100629.25;;;36.54;13.26
21863;BME280;11096;51.338;12.524;2023-04-19T11:14:50;100628.03;;;37.59;12.31
21863;BME280;11096;51.338;12.524;2023-04-19T11:17:21;100617.78;;;31.48;15.37
21863;BME280;11096;51.338;12.524;2023-04-19T11:19:59;100628.63;;;28.81;17.65
21863;BME280;11096;51.338;12.524;2023-04-19T11:22:35;100625.66;;;26.71;19.90
21863;BME280;11096;51.338;12.524;2023-04-19T11:25:10;100628.00;;;24.61;22.08
21863;BME280;11096;51.338;12.524;2023-04-19T11:27:37;100629.56;;;23.12;24.49
21863;BME280;11096;51.338;12.524;2023-04-19T11:30:10;100633.13;;;22.57;25.06
21863;BME280;11096;51.338;12.524;2023-04-19T11:32:36;100623.34;;;22.97;24.59
21863;BME280;11096;51.338;12.524;2023-04-19T11:35:08;100625.03;;;21.45;26.03
21863;BME280;11096;51.338;12.524;2023-04-19T11:37:35;100632.72;;;20.55;27.69
21863;BME280;11096;51.338;12.524;2023-04-19T11:40:01;100635.94;;;24.76;24.22
21863;BME280;11096;51.338;12.524;2023-04-19T11:42:27;100616.03;;;24.20;23.21
21863;BME280;11096;51.338;12.524;2023-04-19T11:44:53;100613.38;;;22.28;25.05
21863;BME280;11096;51.338;12.524;2023-04-19T11:47:20;100612.00;;;21.52;26.11
21863;BME280;11096;51.338;12.524;2023-04-19T11:49:46;100613.22;;;20.48;27.95
21863;BME280;11096;51.338;12.524;2023-04-19T11:52:11;100624.66;;;19.78;29.23
21863;BME280;11096;51.338;12.524;2023-04-19T11:54:36;100617.25;;;19.20;29.98
21863;BME280;11096;51.338;12.524;2023-04-19T11:57:08;100621.47;;;20.53;28.71
21863;BME280;11096;51.338;12.524;2023-04-19T11:59:35;100621.09;;;20.82;27.83
21863;BME280;11096;51.338;12.524;2023-04-19T12:02:10;100611.97;;;21.84;26.50
21863;BME280;11096;51.338;12.524;2023-04-19T12:04:37;100610.53;;;24.52;24.84
21863;BME280;11096;51.338;12.524;2023-04-19T12:07:04;100602.09;;;26.82;22.34
21863;BME280;11096;51.338;12.524;2023-04-19T12:09:34;100607.94;;;24.95;23.94
21863;BME280;11096;51.338;12.524;2023-04-19T12:12:00;100608.44;;;24.03;24.22
21863;BME280;11096;51.338;12.524;2023-04-19T12:14:26;100604.03;;;21.76;25.44
21863;BME280;11096;51.338;12.524;2023-04-19T12:17:10;100604.41;;;26.02;22.38
21863;BME280;11096;51.338;12.524;2023-04-19T12:19:42;100600.25;;;28.80;20.73
21863;BME280;11096;51.338;12.524;2023-04-19T12:22:15;100598.72;;;27.54;21.34
21863;BME280;11096;51.338;12.524;2023-04-19T12:24:42;100592.09;;;30.68;19.78
21863;BME280;11096;51.338;12.524;2023-04-19T12:27:08;100595.84;;;32.50;17.97
21863;BME280;11096;51.338;12.524;2023-04-19T12:29:34;100587.47;;;33.60;16.94
21863;BME280;11096;51.338;12.524;2023-04-19T12:32:00;100586.59;;;32.75;17.12
21863;BME280;11096;51.338;12.524;2023-04-19T12:34:26;100584.91;;;29.26;19.24
21863;BME280;11096;51.338;12.524;2023-04-19T12:36:52;100579.13;;;28.14;20.26
21863;BME280;11096;51.338;12.524;2023-04-19T12:39:17;100571.09;;;26.67;21.61
21863;BME280;11096;51.338;12.524;2023-04-19T12:41:43;100575.00;;;26.23;22.16
21863;BME280;11096;51.338;12.524;2023-04-19T12:44:08;100572.34;;;24.23;23.50
21863;BME280;11096;51.338;12.524;2023-04-19T12:46:34;100574.34;;;24.06;24.28
21863;BME280;11096;51.338;12.524;2023-04-19T12:48:59;100573.63;;;24.27;24.85